x

Devils Island, Wi (disw3) Weather Station

9:00pm - Fri 27th May 2016 All times are CDT. -5 hours from GMT.

  • Wind
    20mph, 22mph gusts
  • Air Temp 43°f
  • Sea Pressure 1010.6mb
  • Devils Island, Wi
  • Devils Island, Wi

More Historic Weather Station data

Upgrade to MSW Pro to gain access to the past 30 days of data for over 8000 Wavebouys and Weather Stations around the globe.

Join Pro

Comparision Forecast

View Surf forecast
   
Fri 05/27 9:00pm 20 22 mph 1010.6mb 43f
8:00pm 8 9 mph 1011.3mb 44f
7:00pm 11 13 mph 1011.6mb 44f
6:00pm 13 14 mph 1011.8mb 44f
5:00pm 5 6 mph 1012.7mb 48f
4:00pm 14 18 mph 1012.4mb 46f
3:00pm 10 11 mph 1012.6mb 44f
2:00pm 18 20 mph 1012.9mb 46f
1:00pm 10
mph
1013.9mb 43f
12:00pm 14 15 mph 1013.2mb 43f
11:00am 13
mph
1013.4mb 43f
10:00am 11 13 mph 1013.4mb 43f
9:00am 8 9 mph 1013.1mb 44f
8:00am 6 7 mph 1012.8mb 44f
7:00am 5 6 mph 1012.2mb 45f
6:00am 7 8 mph 1012.2mb 43f
5:00am 1 2 mph 1011.8mb 43f
4:00am 1 2 mph 1011.4mb 43f
3:00am 6
mph
1012.2mb 44f
2:00am 5 6 mph 1012mb 45f
1:00am  -  mph 1011.3mb 45f
12:00am  -  mph 1011.1mb 46f
Thu 05/26 11:00pm  -  mph 1011mb 46f
10:00pm 3
mph
1011mb 46f
9:00pm 3 6 mph 1010.6mb 48f
8:00pm 8 9 mph 1010.3mb 46f
7:00pm 7 8 mph 1008.6mb 44f
6:00pm 7
mph
1009.7mb 44f
5:00pm 8
mph
1010.1mb 44f
4:00pm 6 7 mph 1010.6mb 44f
3:00pm 6 7 mph 1010.6mb 44f
2:00pm 7 8 mph 1010.5mb 46f
1:00pm 8 9 mph 1010.2mb 45f
12:00pm 5 8 mph 1010.1mb 46f
11:00am 13 16 mph 1009.8mb 44f
10:00am  -  1 mph 1010.7mb 44f
9:00am 9 10 mph 1010.2mb 43f
8:00am 10
mph
1010mb 43f
7:00am 9 10 mph 1010.5mb 42f
6:00am 6
mph
1010.9mb 42f
5:00am 13 14 mph 1010.3mb 41f
4:00am 10 11 mph 1011.2mb 42f
3:00am 7 8 mph 1011mb 42f
2:00am 8
mph
1011.3mb 42f
1:00am 7 8 mph 1011.4mb 42f
12:00am 9 10 mph 1012mb 42f
Wed 05/25 11:00pm 15 18 mph 1012.7mb 42f
10:00pm 22 24 mph 1013.4mb 44f
9:00pm 17 20 mph 1014.5mb 44f
8:00pm 9 10 mph 1015.1mb 44f
7:00pm 7 10 mph 1015.2mb 43f
6:00pm 21 24 mph 1014.3mb 44f
5:00pm 29 31 mph 1013.9mb 44f
4:00pm 22 25 mph 1015.2mb 43f
3:00pm 21 24 mph 1015.9mb 42f
2:00pm 24 25 mph 1016.8mb 42f
1:00pm 22 25 mph 1017.6mb 43f
12:00pm 21 23 mph 1018.7mb 43f
11:00am 20 22 mph 1018.3mb 44f
10:00am 24 26 mph 1018.2mb 44f
9:00am 21 22 mph 1018.6mb 44f
8:00am 18 22 mph 1018.1mb 44f
7:00am 17 20 mph 1017.8mb 45f
6:00am 18 20 mph 1017.9mb 44f
5:00am 16 17 mph 1017.8mb 44f
4:00am 11 13 mph 1018mb 44f
3:00am 9 10 mph 1018mb 45f
2:00am 13
mph
1017.1mb 46f
1:00am 11 13 mph 1017.5mb 46f
12:00am 22 25 mph 1017.8mb 44f
Tue 05/24 11:00pm 13 14 mph 1017.7mb 46f
10:00pm 18 21 mph 1017.3mb 46f
9:00pm 18 22 mph 1015.9mb 47f
8:00pm 16 18 mph 1015.6mb 47f
7:00pm 15 16 mph 1015.2mb 48f
6:00pm 16 20 mph 1014.3mb 48f
5:00pm 14
mph
1013.9mb 49f
4:00pm 15
mph
1013.5mb 53f
3:00pm 13 14 mph 1013.6mb 51f
2:00pm 9 10 mph 1013mb 52f
1:00pm 10 13 mph 1013.2mb 50f
12:00pm 9 11 mph 1011.2mb 57f
11:00am 10 11 mph 1011.3mb 53f
10:00am 8 9 mph 1011.5mb 56f
9:00am 6 7 mph 1012.6mb 53f
8:00am 6
mph
1010mb 59f
7:00am 8 9 mph 1010.8mb 59f
6:00am 5
mph
1010mb 61f
5:00am  -  1 mph 1010mb 60f
4:00am  -  2 mph 1010.2mb 57f